createdAt,value
2022-10-27T00:02:08.591Z,100060.00
2022-10-27T00:04:34.959Z,100064.38
2022-10-27T00:07:01.456Z,100064.34
2022-10-27T00:09:27.867Z,100068.88
2022-10-27T00:11:57.372Z,100074.25
2022-10-27T00:14:23.873Z,100076.91
2022-10-27T00:16:57.311Z,100076.97
2022-10-27T00:19:24.902Z,100077.84
2022-10-27T00:21:51.955Z,100082.34
2022-10-27T00:24:19.205Z,100082.34
2022-10-27T00:26:45.763Z,100076.97
2022-10-27T00:29:12.201Z,100088.66
2022-10-27T00:31:38.869Z,100090.47
2022-10-27T00:34:05.263Z,100093.16
2022-10-27T00:36:31.767Z,100098.47
2022-10-27T00:38:59.360Z,100102.69
2022-10-27T00:41:25.872Z,100106.19
2022-10-27T00:43:52.328Z,100106.13
2022-10-27T00:46:27.063Z,100113.22
2022-10-27T00:48:55.533Z,100112.16
2022-10-27T00:51:23.008Z,100114.69
2022-10-27T00:53:49.738Z,100116.28
2022-10-27T00:56:16.851Z,100116.16
2022-10-27T00:58:45.223Z,100111.41
2022-10-27T01:01:12.266Z,100113.03
2022-10-27T01:03:39.058Z,100119.09
2022-10-27T01:06:05.684Z,100132.34
2022-10-27T01:08:32.242Z,100135.75
2022-10-27T01:10:58.663Z,100127.44
2022-10-27T01:13:25.144Z,100133.59
2022-10-27T01:15:51.566Z,100140.56
2022-10-27T01:18:17.961Z,100139.56
2022-10-27T01:20:50.604Z,100142.09
2022-10-27T01:23:35.473Z,100139.25
2022-10-27T01:26:07.846Z,100139.81
2022-10-27T01:28:52.917Z,100136.91
2022-10-27T01:31:22.477Z,100135.03
2022-10-27T01:33:50.443Z,100134.91
2022-10-27T01:36:26.505Z,100134.88
2022-10-27T01:39:04.110Z,100136.56
2022-10-27T01:41:50.597Z,100132.97
2022-10-27T01:44:24.819Z,100136.56
2022-10-27T01:46:51.536Z,100137.50
2022-10-27T01:49:17.957Z,100141.97
2022-10-27T01:51:44.408Z,100135.81
2022-10-27T01:54:10.844Z,100136.91
2022-10-27T01:56:49.462Z,100135.22
2022-10-27T01:59:25.482Z,100144.41
2022-10-27T02:01:54.904Z,100143.66
2022-10-27T02:04:21.296Z,100145.59
2022-10-27T02:06:47.724Z,100144.84
2022-10-27T02:09:18.861Z,100146.81
2022-10-27T02:11:46.673Z,100140.66
2022-10-27T02:14:14.013Z,100144.41
2022-10-27T02:16:43.246Z,100141.03
2022-10-27T02:19:16.331Z,100146.50
2022-10-27T02:21:44.515Z,100142.06
2022-10-27T02:24:10.945Z,100149.25
2022-10-27T02:26:45.469Z,100153.84
2022-10-27T02:29:17.548Z,100152.16
2022-10-27T02:31:47.376Z,100157.53
2022-10-27T02:34:14.251Z,100159.28
2022-10-27T02:36:40.783Z,100154.84
2022-10-27T02:39:07.269Z,100154.06
2022-10-27T02:41:33.697Z,100156.72
2022-10-27T02:44:00.119Z,100155.88
2022-10-27T02:46:26.649Z,100155.81
2022-10-27T02:48:53.110Z,100148.59
2022-10-27T02:51:19.569Z,100154.03
2022-10-27T02:53:45.962Z,100151.44
2022-10-27T02:56:12.572Z,100155.94
2022-10-27T02:58:39.644Z,100149.75
2022-10-27T03:01:06.447Z,100159.66
2022-10-27T03:03:33.016Z,100152.66
2022-10-27T03:05:59.574Z,100159.66
2022-10-27T03:08:25.973Z,100156.97
2022-10-27T03:10:52.422Z,100156.09
2022-10-27T03:13:18.824Z,100164.31
2022-10-27T03:15:45.829Z,100169.84
2022-10-27T03:18:12.323Z,100168.22
2022-10-27T03:20:38.724Z,100172.81
2022-10-27T03:23:05.196Z,100163.31
2022-10-27T03:25:31.871Z,100174.28
2022-10-27T03:27:58.253Z,100166.53
2022-10-27T03:30:24.669Z,100177.47
2022-10-27T03:32:52.327Z,100177.63
2022-10-27T03:35:19.711Z,100182.47
2022-10-27T03:37:46.168Z,100182.72
2022-10-27T03:40:12.994Z,100184.66
2022-10-27T03:42:42.514Z,100177.72
2022-10-27T03:45:12.189Z,100182.22
2022-10-27T03:47:38.851Z,100186.75
2022-10-27T03:50:05.501Z,100194.06
2022-10-27T03:52:33.293Z,100193.22
2022-10-27T03:55:00.061Z,100205.97
2022-10-27T03:57:26.522Z,100208.78
2022-10-27T03:59:53.001Z,100212.50
2022-10-27T04:02:19.447Z,100211.69
2022-10-27T04:04:45.962Z,100218.06
2022-10-27T04:07:12.328Z,100213.66
2022-10-27T04:09:38.746Z,100216.44
2022-10-27T04:12:05.963Z,100221.06
2022-10-27T04:14:32.397Z,100213.94
2022-10-27T04:16:58.768Z,100217.59
2022-10-27T04:19:25.269Z,100215.88
2022-10-27T04:21:51.986Z,100210.59
2022-10-27T04:24:18.399Z,100212.44
2022-10-27T04:26:44.783Z,100216.94
2022-10-27T04:29:11.239Z,100212.59
2022-10-27T04:31:37.657Z,100218.75
2022-10-27T04:34:04.105Z,100229.13
2022-10-27T04:36:30.826Z,100221.88
2022-10-27T04:38:57.276Z,100221.81
2022-10-27T04:41:23.791Z,100225.34
2022-10-27T04:46:18.613Z,100239.69
2022-10-27T04:48:45.069Z,100241.50
2022-10-27T04:51:11.494Z,100239.75
2022-10-27T04:53:37.929Z,100242.47
2022-10-27T04:56:04.362Z,100239.13
2022-10-27T04:58:30.805Z,100242.94
2022-10-27T05:00:57.235Z,100231.59
2022-10-27T05:03:23.637Z,100252.44
2022-10-27T05:05:50.078Z,100250.84
2022-10-27T05:08:16.501Z,100254.44
2022-10-27T05:10:42.931Z,100251.66
2022-10-27T05:13:09.352Z,100256.09
2022-10-27T05:15:35.901Z,100260.66
2022-10-27T05:18:02.963Z,100258.09
2022-10-27T05:20:29.897Z,100252.78
2022-10-27T05:22:56.322Z,100262.63
2022-10-27T05:25:22.795Z,100265.31
2022-10-27T05:27:49.486Z,100266.06
2022-10-27T05:30:16.066Z,100265.16
2022-10-27T05:32:46.479Z,100273.13
2022-10-27T05:35:14.089Z,100271.31
2022-10-27T05:37:43.787Z,100272.22
2022-10-27T05:40:10.476Z,100279.31
2022-10-27T05:42:36.881Z,100277.66
2022-10-27T05:45:03.443Z,100272.44
2022-10-27T05:47:29.835Z,100269.06
2022-10-27T05:49:56.260Z,100271.81
2022-10-27T05:52:22.635Z,100271.00
2022-10-27T05:54:49.067Z,100262.13
2022-10-27T05:57:15.482Z,100270.97
2022-10-27T05:59:41.965Z,100270.97
2022-10-27T06:02:09.273Z,100275.44
2022-10-27T06:04:35.749Z,100277.25
2022-10-27T06:07:02.160Z,100282.66
2022-10-27T06:09:28.627Z,100274.63
2022-10-27T06:11:55.078Z,100287.06
2022-10-27T06:14:22.362Z,100287.94
2022-10-27T06:16:50.891Z,100285.19
2022-10-27T06:19:17.562Z,100283.47
2022-10-27T06:21:44.183Z,100296.06
2022-10-27T06:24:11.509Z,100301.56
2022-10-27T06:26:37.864Z,100304.31
2022-10-27T06:29:04.256Z,100315.91
2022-10-27T06:31:30.622Z,100313.00
2022-10-27T06:33:57.066Z,100312.88
2022-10-27T06:36:23.567Z,100319.13
2022-10-27T06:38:49.973Z,100331.22
2022-10-27T06:41:17.841Z,100325.09
2022-10-27T06:43:44.976Z,100331.53
2022-10-27T06:46:11.555Z,100325.31
2022-10-27T06:48:37.889Z,100330.81
2022-10-27T06:51:04.342Z,100332.66
2022-10-27T06:53:30.992Z,100342.53
2022-10-27T06:55:58.495Z,100345.19
2022-10-27T06:58:24.904Z,100346.91
2022-10-27T07:00:51.321Z,100349.56
2022-10-27T07:03:17.807Z,100342.28
2022-10-27T07:05:44.358Z,100345.81
2022-10-27T07:08:10.930Z,100352.75
2022-10-27T07:10:37.382Z,100350.88
2022-10-27T07:13:03.924Z,100353.41
2022-10-27T07:15:33.081Z,100358.59
2022-10-27T07:18:01.090Z,100355.72
2022-10-27T07:20:29.244Z,100361.78
2022-10-27T07:22:56.181Z,100359.75
2022-10-27T07:25:22.636Z,100359.56
2022-10-27T07:27:54.423Z,100361.00
2022-10-27T07:30:22.442Z,100361.44
2022-10-27T07:32:48.995Z,100371.75
2022-10-27T07:35:16.010Z,100375.81
2022-10-27T07:37:46.256Z,100379.97
2022-10-27T07:40:13.605Z,100380.47
2022-10-27T07:42:47.088Z,100376.41
2022-10-27T07:45:14.301Z,100382.16
2022-10-27T07:47:49.355Z,100387.13
2022-10-27T07:50:16.764Z,100384.91
2022-10-27T07:52:44.220Z,100397.19
2022-10-27T07:55:14.457Z,100391.47
2022-10-27T07:57:42.389Z,100396.47
2022-10-27T08:00:13.079Z,100389.78
2022-10-27T08:02:39.747Z,100387.59
2022-10-27T08:05:06.510Z,100393.53
2022-10-27T08:07:33.073Z,100386.78
2022-10-27T08:09:59.456Z,100385.50
2022-10-27T08:12:25.905Z,100385.69
2022-10-27T08:14:55.702Z,100380.66
2022-10-27T08:17:22.478Z,100380.34
2022-10-27T08:19:48.940Z,100384.53
2022-10-27T08:22:15.308Z,100384.09
2022-10-27T08:24:42.449Z,100380.84
2022-10-27T08:27:08.852Z,100374.16
2022-10-27T08:29:35.241Z,100377.16
2022-10-27T08:32:01.679Z,100370.16
2022-10-27T08:34:28.027Z,100380.28
2022-10-27T08:36:54.531Z,100378.69
2022-10-27T08:39:20.892Z,100374.31
2022-10-27T08:41:53.069Z,100383.50
2022-10-27T08:44:19.520Z,100379.19
2022-10-27T08:46:50.517Z,100382.75
2022-10-27T08:49:28.352Z,100378.28
2022-10-27T08:51:58.027Z,100373.72
2022-10-27T08:54:27.507Z,100376.09
2022-10-27T08:56:55.497Z,100382.53
2022-10-27T08:59:24.097Z,100378.78
2022-10-27T09:02:09.367Z,100374.38
2022-10-27T09:04:53.444Z,100372.50
2022-10-27T09:07:20.040Z,100369.75
2022-10-27T09:09:50.976Z,100369.69
2022-10-27T09:12:23.171Z,100371.06
2022-10-27T09:14:49.502Z,100376.97
2022-10-27T09:17:28.179Z,100370.09
2022-10-27T09:19:56.863Z,100377.88
2022-10-27T09:22:24.867Z,100378.72
2022-10-27T09:24:57.607Z,100375.44
2022-10-27T09:27:24.721Z,100383.00
2022-10-27T09:29:52.063Z,100378.63
2022-10-27T09:32:20.830Z,100377.59
2022-10-27T09:34:53.807Z,100374.63
2022-10-27T09:37:21.178Z,100378.63
2022-10-27T09:39:49.280Z,100385.91
2022-10-27T09:42:16.361Z,100378.81
2022-10-27T09:44:55.532Z,100382.41
2022-10-27T09:49:57.983Z,100372.41
2022-10-27T09:52:28.447Z,100375.13
2022-10-27T09:54:56.046Z,100370.19
2022-10-27T09:57:26.591Z,100369.28
2022-10-27T09:59:59.057Z,100363.09
2022-10-27T10:02:30.393Z,100366.09
2022-10-27T10:04:57.718Z,100362.78
2022-10-27T10:07:37.753Z,100362.50
2022-10-27T10:10:06.921Z,100358.91
2022-10-27T10:12:33.527Z,100358.41
2022-10-27T10:15:12.054Z,100363.44
2022-10-27T10:17:40.538Z,100364.88
2022-10-27T10:20:08.582Z,100362.94
2022-10-27T10:22:39.006Z,100358.19
2022-10-27T10:25:22.559Z,100358.28
2022-10-27T10:27:56.633Z,100360.72
2022-10-27T10:30:25.054Z,100358.34
2022-10-27T10:32:54.118Z,100360.66
2022-10-27T10:35:40.805Z,100357.16
2022-10-27T10:38:30.383Z,100360.75
2022-10-27T10:41:01.074Z,100352.94
2022-10-27T10:43:27.596Z,100355.47
2022-10-27T10:45:54.195Z,100353.41
2022-10-27T10:48:26.708Z,100347.13
2022-10-27T10:50:53.419Z,100351.94
2022-10-27T10:53:26.532Z,100353.16
2022-10-27T10:55:57.056Z,100343.38
2022-10-27T10:58:25.515Z,100342.72
2022-10-27T11:00:56.554Z,100339.03
2022-10-27T11:03:24.705Z,100333.81
2022-10-27T11:05:59.314Z,100332.53
2022-10-27T11:08:39.577Z,100321.72
2022-10-27T11:11:16.190Z,100327.31
2022-10-27T11:13:48.243Z,100318.88
2022-10-27T11:16:14.989Z,100325.00
2022-10-27T11:18:41.422Z,100322.34
2022-10-27T11:21:13.413Z,100321.06
2022-10-27T11:23:48.153Z,100322.81
2022-10-27T11:26:17.006Z,100311.44
2022-10-27T11:28:46.436Z,100314.38
2022-10-27T11:31:23.911Z,100312.69
2022-10-27T11:34:09.172Z,100309.19
2022-10-27T11:36:44.301Z,100308.41
2022-10-27T11:39:18.939Z,100308.72
2022-10-27T11:41:50.076Z,100306.06
2022-10-27T11:44:29.130Z,100307.75
2022-10-27T11:47:05.891Z,100301.06
2022-10-27T11:49:35.444Z,100304.56
2022-10-27T11:52:14.227Z,100301.06
2022-10-27T11:54:40.981Z,100293.16
2022-10-27T11:57:38.587Z,100297.16
2022-10-27T12:00:03.887Z,100291.97
2022-10-27T12:02:49.262Z,100296.78
2022-10-27T12:05:27.817Z,100291.44
2022-10-27T12:08:03.089Z,100291.97
2022-10-27T12:10:29.465Z,100286.88
2022-10-27T12:13:03.146Z,100291.75
2022-10-27T12:15:34.402Z,100282.81
2022-10-27T12:18:06.143Z,100288.69
2022-10-27T12:20:45.064Z,100280.84
2022-10-27T12:23:14.514Z,100278.44
2022-10-27T12:25:50.188Z,100278.59
2022-10-27T12:28:17.615Z,100273.28
2022-10-27T12:30:46.015Z,100274.72
2022-10-27T12:33:17.599Z,100269.78
2022-10-27T12:35:56.081Z,100277.41
2022-10-27T12:38:41.379Z,100261.84
2022-10-27T12:41:16.653Z,100269.06
2022-10-27T12:43:43.113Z,100274.03
2022-10-27T12:46:12.617Z,100269.19
2022-10-27T12:48:53.682Z,100262.63
2022-10-27T12:51:35.753Z,100269.19
2022-10-27T12:54:02.141Z,100257.25
2022-10-27T12:56:31.663Z,100259.88
2022-10-27T12:59:09.980Z,100251.03
2022-10-27T13:01:56.853Z,100251.75
2022-10-27T13:04:23.324Z,100252.75
2022-10-27T13:07:08.807Z,100246.63
2022-10-27T13:09:35.183Z,100243.06
2022-10-27T13:12:03.087Z,100243.06
2022-10-27T13:14:32.449Z,100230.66
2022-10-27T13:17:21.344Z,100231.91
2022-10-27T13:19:54.818Z,100237.25
2022-10-27T13:22:44.638Z,100228.78
2022-10-27T13:25:11.079Z,100233.53
2022-10-27T13:27:52.079Z,100229.41
2022-10-27T13:30:21.038Z,100227.31
2022-10-27T13:32:47.595Z,100221.47
2022-10-27T13:35:14.091Z,100218.47
2022-10-27T13:37:49.571Z,100216.06
2022-10-27T13:40:18.996Z,100223.91
2022-10-27T13:42:50.175Z,100218.56
2022-10-27T13:45:35.275Z,100217.94
2022-10-27T13:48:08.180Z,100226.19
2022-10-27T13:50:36.160Z,100232.59
2022-10-27T13:53:15.138Z,100229.63
2022-10-27T13:55:41.595Z,100219.59
2022-10-27T13:58:14.109Z,100216.22
2022-10-27T14:00:45.167Z,100221.63
2022-10-27T14:03:11.637Z,100206.56
2022-10-27T14:05:56.546Z,100218.06
2022-10-27T14:08:24.207Z,100213.94
2022-10-27T14:10:51.880Z,100222.06
2022-10-27T14:13:23.750Z,100209.13
2022-10-27T14:15:56.243Z,100214.66
2022-10-27T14:18:25.660Z,100198.75
2022-10-27T14:23:25.293Z,100218.66
2022-10-27T14:28:23.659Z,100218.75
2022-10-27T14:31:15.648Z,100215.94
2022-10-27T14:33:42.048Z,100215.28
2022-10-27T14:36:14.586Z,100219.53
2022-10-27T14:38:46.135Z,100211.56
2022-10-27T14:41:20.092Z,100206.78
2022-10-27T14:43:56.870Z,100210.38
2022-10-27T14:46:24.886Z,100208.41
2022-10-27T14:49:02.626Z,100210.91
2022-10-27T14:51:31.952Z,100211.44
2022-10-27T14:53:58.702Z,100215.88
2022-10-27T14:56:26.160Z,100210.06
2022-10-27T14:58:57.121Z,100206.44
2022-10-27T15:01:35.751Z,100200.84
2022-10-27T15:04:14.836Z,100200.03
2022-10-27T15:06:43.439Z,100202.28
2022-10-27T15:09:23.948Z,100198.53
2022-10-27T15:11:50.356Z,100193.63
2022-10-27T15:14:17.146Z,100196.94
2022-10-27T15:16:45.300Z,100192.28
2022-10-27T15:19:14.736Z,100182.97
2022-10-27T15:21:41.181Z,100190.63
2022-10-27T15:24:08.239Z,100179.38
2022-10-27T15:26:34.837Z,100180.94
2022-10-27T15:29:03.654Z,100180.63
2022-10-27T15:31:38.071Z,100182.31
2022-10-27T15:34:06.547Z,100180.47
2022-10-27T15:36:32.939Z,100175.84
2022-10-27T15:39:09.268Z,100180.63
2022-10-27T15:41:36.796Z,100184.09
2022-10-27T15:44:03.150Z,100172.38
2022-10-27T15:46:33.130Z,100179.94
2022-10-27T15:49:02.580Z,100180.41
2022-10-27T15:51:44.241Z,100179.28
2022-10-27T15:54:23.113Z,100183.50
2022-10-27T15:56:51.546Z,100186.66
2022-10-27T15:59:23.553Z,100186.13
2022-10-27T16:01:50.926Z,100189.28
2022-10-27T16:04:28.004Z,100184.50
2022-10-27T16:07:14.501Z,100189.56
2022-10-27T16:09:44.792Z,100188.09
2022-10-27T16:12:14.649Z,100194.63
2022-10-27T16:14:44.802Z,100187.72
2022-10-27T16:17:16.114Z,100190.84
2022-10-27T16:19:42.482Z,100187.59
2022-10-27T16:22:13.364Z,100185.16
2022-10-27T16:24:39.768Z,100192.56
2022-10-27T16:27:06.624Z,100192.03
2022-10-27T16:29:33.016Z,100193.25
2022-10-27T16:31:59.410Z,100181.94
2022-10-27T16:34:27.186Z,100194.78
2022-10-27T16:36:55.246Z,100187.94
2022-10-27T16:39:21.618Z,100188.13
2022-10-27T16:41:48.060Z,100190.34
2022-10-27T16:44:14.870Z,100183.69
2022-10-27T16:46:41.275Z,100183.22
2022-10-27T16:49:07.711Z,100181.72
2022-10-27T16:51:34.051Z,100191.03
2022-10-27T16:54:00.404Z,100186.88
2022-10-27T16:56:26.810Z,100194.50
2022-10-27T16:58:53.194Z,100197.59
2022-10-27T17:01:21.058Z,100194.25
2022-10-27T17:03:47.818Z,100193.81
2022-10-27T17:06:16.861Z,100202.25
2022-10-27T17:08:43.518Z,100198.81
2022-10-27T17:11:13.954Z,100200.06
2022-10-27T17:13:40.514Z,100196.50
2022-10-27T17:16:08.042Z,100189.44
2022-10-27T17:18:34.470Z,100192.13
2022-10-27T17:21:01.415Z,100198.41
2022-10-27T17:23:28.389Z,100193.72
2022-10-27T17:25:59.556Z,100190.06
2022-10-27T17:28:25.934Z,100181.75
2022-10-27T17:30:53.593Z,100187.16
2022-10-27T17:33:19.976Z,100192.63
2022-10-27T17:35:59.520Z,100189.13
2022-10-27T17:38:26.565Z,100188.31
2022-10-27T17:40:56.923Z,100193.72
2022-10-27T17:43:23.740Z,100193.88
2022-10-27T17:46:16.419Z,100193.06
2022-10-27T17:48:44.057Z,100193.38
2022-10-27T17:51:14.775Z,100200.75
2022-10-27T17:53:42.192Z,100201.06
2022-10-27T17:56:10.359Z,100197.81
2022-10-27T17:58:37.815Z,100197.16
2022-10-27T18:01:06.318Z,100190.19
2022-10-27T18:03:38.132Z,100196.75
2022-10-27T18:06:05.632Z,100190.72
2022-10-27T18:08:32.372Z,100195.25
2022-10-27T18:11:14.956Z,100191.97
2022-10-27T18:13:42.856Z,100188.75
2022-10-27T18:16:22.637Z,100180.78
2022-10-27T18:18:49.312Z,100180.06
2022-10-27T18:21:15.746Z,100185.53
2022-10-27T18:23:42.162Z,100188.22
2022-10-27T18:26:08.655Z,100185.69
2022-10-27T18:28:35.355Z,100184.06
2022-10-27T18:31:02.529Z,100184.22
2022-10-27T18:33:29.317Z,100188.03
2022-10-27T18:35:58.925Z,100182.81
2022-10-27T18:38:25.435Z,100182.09
2022-10-27T18:40:51.853Z,100183.16
2022-10-27T18:43:18.248Z,100185.13
2022-10-27T18:45:47.649Z,100178.09
2022-10-27T18:48:13.979Z,100181.97
2022-10-27T18:50:40.336Z,100186.63
2022-10-27T18:53:07.367Z,100170.63
2022-10-27T18:55:37.553Z,100175.28
2022-10-27T18:58:04.079Z,100173.53
2022-10-27T19:00:30.793Z,100167.38
2022-10-27T19:02:57.124Z,100176.38
2022-10-27T19:05:23.579Z,100172.78
2022-10-27T19:07:49.924Z,100171.91
2022-10-27T19:10:16.309Z,100168.41
2022-10-27T19:12:42.630Z,100169.38
2022-10-27T19:15:09.282Z,100165.69
2022-10-27T19:17:35.615Z,100165.66
2022-10-27T19:20:02.023Z,100168.94
2022-10-27T19:22:28.462Z,100165.16
2022-10-27T19:24:54.895Z,100162.25
2022-10-27T19:27:21.242Z,100164.00
2022-10-27T19:29:47.627Z,100158.47
2022-10-27T19:32:14.664Z,100150.44
2022-10-27T19:34:43.149Z,100156.72
2022-10-27T19:37:11.356Z,100149.50
2022-10-27T19:39:37.712Z,100152.28
2022-10-27T19:42:04.141Z,100150.38
2022-10-27T19:44:30.635Z,100146.66
2022-10-27T19:46:57.458Z,100145.50
2022-10-27T19:49:23.822Z,100141.19
2022-10-27T19:51:50.321Z,100141.97
2022-10-27T19:54:17.976Z,100146.53
2022-10-27T19:56:49.039Z,100152.84
2022-10-27T19:59:17.018Z,100151.09
2022-10-27T20:01:48.784Z,100152.13
2022-10-27T20:04:18.110Z,100149.66
2022-10-27T20:06:46.508Z,100155.25
2022-10-27T20:09:17.293Z,100159.84
2022-10-27T20:11:44.719Z,100157.22
2022-10-27T20:14:11.655Z,100161.00
2022-10-27T20:16:39.334Z,100155.59
2022-10-27T20:19:37.942Z,100151.06
2022-10-27T20:22:04.703Z,100155.47
2022-10-27T20:24:31.171Z,100149.19
2022-10-27T20:26:57.560Z,100150.13
2022-10-27T20:29:26.686Z,100150.06
2022-10-27T20:31:55.337Z,100150.13
2022-10-27T20:34:21.989Z,100145.59
2022-10-27T20:36:48.418Z,100149.25
2022-10-27T20:39:15.175Z,100152.00
2022-10-27T20:41:41.565Z,100162.00
2022-10-27T20:44:08.004Z,100157.63
2022-10-27T20:46:34.763Z,100155.94
2022-10-27T20:49:01.355Z,100163.91
2022-10-27T20:51:29.041Z,100148.72
2022-10-27T20:53:55.526Z,100150.63
2022-10-27T20:56:21.855Z,100154.13
2022-10-27T20:58:49.349Z,100142.44
2022-10-27T21:01:27.469Z,100146.16
2022-10-27T21:03:54.965Z,100145.41
2022-10-27T21:06:21.344Z,100142.88
2022-10-27T21:08:47.930Z,100137.56
2022-10-27T21:11:14.476Z,100141.19
2022-10-27T21:13:40.947Z,100150.16
2022-10-27T21:16:07.468Z,100144.91
2022-10-27T21:18:33.927Z,100135.13
2022-10-27T21:21:00.355Z,100125.28
2022-10-27T21:23:26.807Z,100129.00
2022-10-27T21:25:53.192Z,100135.41
2022-10-27T21:28:19.640Z,100131.06
2022-10-27T21:30:46.057Z,100128.44
2022-10-27T21:33:12.548Z,100127.63
2022-10-27T21:35:38.930Z,100122.31
2022-10-27T21:38:05.391Z,100118.00
2022-10-27T21:40:31.985Z,100125.16
2022-10-27T21:42:58.426Z,100124.19
2022-10-27T21:45:24.951Z,100117.00
2022-10-27T21:47:51.868Z,100123.31
2022-10-27T21:50:18.449Z,100119.81
2022-10-27T21:52:44.981Z,100111.88
2022-10-27T21:55:11.519Z,100109.31
2022-10-27T21:57:37.962Z,100110.25
2022-10-27T22:00:05.342Z,100112.94
2022-10-27T22:02:31.844Z,100103.13
2022-10-27T22:04:58.275Z,100108.44
2022-10-27T22:07:25.489Z,100104.06
2022-10-27T22:09:51.945Z,100100.47
2022-10-27T22:12:18.347Z,100100.44
2022-10-27T22:14:44.777Z,100100.44
2022-10-27T22:17:11.293Z,100097.66
2022-10-27T22:19:37.783Z,100093.19
2022-10-27T22:22:04.626Z,100096.06
2022-10-27T22:24:31.059Z,100089.84
2022-10-27T22:26:57.447Z,100083.63
2022-10-27T22:29:23.893Z,100089.16
2022-10-27T22:31:50.275Z,100082.97
2022-10-27T22:34:16.749Z,100087.50
2022-10-27T22:36:43.246Z,100076.72
2022-10-27T22:39:11.759Z,100078.59
2022-10-27T22:41:38.214Z,100085.81
2022-10-27T22:44:06.264Z,100086.59
2022-10-27T22:46:33.535Z,100091.19
2022-10-27T22:49:00.264Z,100075.81
2022-10-27T22:51:27.511Z,100086.75
2022-10-27T22:53:54.952Z,100081.47
2022-10-27T22:56:21.410Z,100067.25
2022-10-27T22:58:48.932Z,100063.81
2022-10-27T23:01:20.196Z,100064.78
2022-10-27T23:03:50.436Z,100060.41
2022-10-27T23:06:16.870Z,100074.66
2022-10-27T23:08:43.249Z,100067.59
2022-10-27T23:11:09.706Z,100055.81
2022-10-27T23:13:37.179Z,100066.38
2022-10-27T23:16:05.329Z,100066.31
2022-10-27T23:18:33.087Z,100069.09
2022-10-27T23:21:00.669Z,100062.94
2022-10-27T23:23:28.210Z,100064.81
2022-10-27T23:25:54.963Z,100080.19
2022-10-27T23:28:21.520Z,100067.75
2022-10-27T23:30:48.087Z,100075.81
2022-10-27T23:33:15.188Z,100082.06
2022-10-27T23:35:41.967Z,100075.94
2022-10-27T23:38:08.527Z,100085.03
2022-10-27T23:40:35.220Z,100063.47
2022-10-27T23:43:01.712Z,100064.50
2022-10-27T23:45:28.148Z,100065.41
2022-10-27T23:47:54.517Z,100051.34
2022-10-27T23:50:21.203Z,100056.94
2022-10-27T23:52:47.667Z,100070.50
2022-10-27T23:55:14.169Z,100068.78
2022-10-27T23:57:40.583Z,100065.31
